createdAt,value
2018-08-09T00:00:05.592Z,40.08
2018-08-09T00:01:15.007Z,40.08
2018-08-09T00:02:24.995Z,40.08
2018-08-09T00:03:34.401Z,40.08
2018-08-09T00:04:43.558Z,40.17
2018-08-09T00:05:52.963Z,40.08
2018-08-09T00:07:02.647Z,40.08
2018-08-09T00:08:12.056Z,40.08
2018-08-09T00:09:21.209Z,40.17
2018-08-09T00:10:30.873Z,40.27
2018-08-09T00:11:40.280Z,40.27
2018-08-09T00:12:49.741Z,40.27
2018-08-09T00:13:58.631Z,40.27
2018-08-09T00:15:08.046Z,40.37
2018-08-09T00:16:17.464Z,40.27
2018-08-09T00:17:26.630Z,39.86
2018-08-09T00:18:36.547Z,40.15
2018-08-09T00:19:45.705Z,40.44
2018-08-09T00:20:55.116Z,40.34
2018-08-09T00:22:05.059Z,40.34
2018-08-09T00:23:14.212Z,40.93
2018-08-09T00:24:23.622Z,40.83
2018-08-09T00:25:33.298Z,40.73
2018-08-09T00:26:42.705Z,40.93
2018-08-09T00:27:51.888Z,40.73
2018-08-09T00:29:01.290Z,40.93
2018-08-09T00:30:11.200Z,40.83
2018-08-09T00:31:20.345Z,40.83
2018-08-09T00:32:29.239Z,40.93
2018-08-09T00:33:38.651Z,40.83
2018-08-09T00:34:48.057Z,40.83
2018-08-09T00:35:57.473Z,40.54
2018-08-09T00:37:06.870Z,40.83
2018-08-09T00:38:16.276Z,40.83
2018-08-09T00:39:24.944Z,40.83
2018-08-09T00:40:34.353Z,40.83
2018-08-09T00:41:43.508Z,40.93
2018-08-09T00:42:52.701Z,40.44
2018-08-09T00:44:01.859Z,40.44
2018-08-09T00:45:11.262Z,40.15
2018-08-09T00:46:20.925Z,40.25
2018-08-09T00:47:30.072Z,40.23
2018-08-09T00:48:38.964Z,40.06
2018-08-09T00:49:48.670Z,40.06
2018-08-09T00:50:58.095Z,40.34
2018-08-09T00:52:07.506Z,39.96
2018-08-09T00:53:16.668Z,40.15
2018-08-09T00:54:25.833Z,40.25
2018-08-09T00:55:35.499Z,40.34
2018-08-09T00:56:44.646Z,40.25
2018-08-09T00:57:53.790Z,40.25
2018-08-09T00:59:03.210Z,40.25
2018-08-09T01:00:12.883Z,40.25
2018-08-09T01:01:22.051Z,40.25
2018-08-09T01:02:31.705Z,40.15
2018-08-09T01:03:41.113Z,40.34
2018-08-09T01:04:50.784Z,40.23
2018-08-09T01:06:00.202Z,39.94
2018-08-09T01:07:09.377Z,40.03
2018-08-09T01:08:19.038Z,40.06
2018-08-09T01:09:27.941Z,40.15
2018-08-09T01:10:37.097Z,39.86
2018-08-09T01:11:46.012Z,39.96
2018-08-09T01:12:55.411Z,39.94
2018-08-09T01:14:04.562Z,39.76
2018-08-09T01:15:14.239Z,39.86
2018-08-09T01:16:23.907Z,39.86
2018-08-09T01:17:33.829Z,39.57
2018-08-09T01:18:42.978Z,39.57
2018-08-09T01:19:51.616Z,39.67
2018-08-09T01:21:01.020Z,39.47
2018-08-09T01:22:10.176Z,39.55
2018-08-09T01:23:19.333Z,39.86
2018-08-09T01:24:28.750Z,39.86
2018-08-09T01:25:38.658Z,39.86
2018-08-09T01:26:48.054Z,39.67
2018-08-09T01:27:57.480Z,39.67
2018-08-09T01:29:06.633Z,39.76
2018-08-09T01:30:15.557Z,39.67
2018-08-09T01:31:24.972Z,39.67
2018-08-09T01:32:34.120Z,39.76
2018-08-09T01:33:43.597Z,39.76
2018-08-09T01:34:53.280Z,39.55
2018-08-09T01:36:02.173Z,39.84
2018-08-09T01:37:11.590Z,39.37
2018-08-09T01:38:21.250Z,39.84
2018-08-09T01:39:30.657Z,39.67
2018-08-09T01:40:39.813Z,39.55
2018-08-09T01:41:48.977Z,39.75
2018-08-09T01:42:58.655Z,39.55
2018-08-09T01:44:07.549Z,39.65
2018-08-09T01:45:16.981Z,39.75
2018-08-09T01:46:26.384Z,39.75
2018-08-09T01:47:35.530Z,39.75
2018-08-09T01:48:45.192Z,39.65
2018-08-09T01:49:54.334Z,39.84
2018-08-09T01:51:03.747Z,39.75
2018-08-09T01:52:13.671Z,39.75
2018-08-09T01:53:22.825Z,39.84
2018-08-09T01:54:31.967Z,39.65
2018-08-09T01:55:41.120Z,39.84
2018-08-09T01:56:51.033Z,39.86
2018-08-09T01:58:00.171Z,39.75
2018-08-09T01:59:09.310Z,39.55
2018-08-09T02:00:18.193Z,39.84
2018-08-09T02:01:27.643Z,39.96
2018-08-09T02:02:37.046Z,39.94
2018-08-09T02:03:46.185Z,39.84
2018-08-09T02:04:55.759Z,39.84
2018-08-09T02:06:05.183Z,39.84
2018-08-09T02:07:14.590Z,39.84
2018-08-09T02:08:24.531Z,39.84
2018-08-09T02:09:33.684Z,39.84
2018-08-09T02:10:42.827Z,39.75
2018-08-09T02:11:52.259Z,39.55
2018-08-09T02:13:01.413Z,39.75
2018-08-09T02:14:10.825Z,39.75
2018-08-09T02:15:20.770Z,39.75
2018-08-09T02:16:29.663Z,39.75
2018-08-09T02:17:39.065Z,39.84
2018-08-09T02:18:48.231Z,39.84
2018-08-09T02:19:57.636Z,39.84
2018-08-09T02:21:07.302Z,39.94
2018-08-09T02:22:16.238Z,39.94
2018-08-09T02:23:25.354Z,39.94
2018-08-09T02:24:34.248Z,39.45
2018-08-09T02:25:43.655Z,39.55
2018-08-09T02:26:52.803Z,39.45
2018-08-09T02:28:02.207Z,39.45
2018-08-09T02:29:11.863Z,39.26
2018-08-09T02:30:21.271Z,39.16
2018-08-09T02:31:31.187Z,39.36
2018-08-09T02:32:41.119Z,39.16
2018-08-09T02:33:49.755Z,39.06
2018-08-09T02:34:59.407Z,39.26
2018-08-09T02:36:09.089Z,39.06
2018-08-09T02:37:19.024Z,39.36
2018-08-09T02:38:28.179Z,39.26
2018-08-09T02:39:37.612Z,39.36
2018-08-09T02:40:47.272Z,39.16
2018-08-09T02:41:56.424Z,39.26
2018-08-09T02:43:06.091Z,39.55
2018-08-09T02:44:15.243Z,39.26
2018-08-09T02:45:24.646Z,39.45
2018-08-09T02:46:34.070Z,39.45
2018-08-09T02:47:44.036Z,39.45
2018-08-09T02:48:53.698Z,39.55
2018-08-09T02:50:03.659Z,39.55
2018-08-09T02:51:13.331Z,39.55
2018-08-09T02:52:22.744Z,39.75
2018-08-09T02:53:31.629Z,39.75
2018-08-09T02:54:41.035Z,39.65
2018-08-09T02:55:50.708Z,39.75
2018-08-09T02:56:59.862Z,39.75
2018-08-09T02:58:09.272Z,39.75
2018-08-09T02:59:18.167Z,39.65
2018-08-09T03:00:27.330Z,39.55
2018-08-09T03:01:36.998Z,39.36
2018-08-09T03:02:46.403Z,39.65
2018-08-09T03:03:56.083Z,39.55
2018-08-09T03:05:05.750Z,39.65
2018-08-09T03:06:14.911Z,39.75
2018-08-09T03:07:24.596Z,39.55
2018-08-09T03:08:34.340Z,39.55
2018-08-09T03:09:44.274Z,39.55
2018-08-09T03:10:53.680Z,39.45
2018-08-09T03:12:03.596Z,39.55
2018-08-09T03:13:13.268Z,39.45
2018-08-09T03:14:22.933Z,39.45
2018-08-09T03:15:32.596Z,39.55
2018-08-09T03:16:42.510Z,39.55
2018-08-09T03:17:51.655Z,39.36
2018-08-09T03:19:01.323Z,39.55
2018-08-09T03:20:10.736Z,39.45
2018-08-09T03:21:19.369Z,39.65
2018-08-09T03:22:28.775Z,39.36
2018-08-09T03:23:38.180Z,39.75
2018-08-09T03:24:47.602Z,39.65
2018-08-09T03:25:56.766Z,39.65
2018-08-09T03:27:05.926Z,39.65
2018-08-09T03:28:15.068Z,39.65
2018-08-09T03:29:24.737Z,39.75
2018-08-09T03:30:34.152Z,39.75
2018-08-09T03:31:43.834Z,39.65
2018-08-09T03:32:53.266Z,39.65
2018-08-09T03:34:02.415Z,39.65
2018-08-09T03:35:12.078Z,39.75
2018-08-09T03:36:21.736Z,39.75
2018-08-09T03:37:31.178Z,39.65
2018-08-09T03:38:40.322Z,39.65
2018-08-09T03:39:49.471Z,39.65
2018-08-09T03:40:58.877Z,39.65
2018-08-09T03:42:08.019Z,39.65
2018-08-09T03:43:17.420Z,39.65
2018-08-09T03:44:26.845Z,39.45
2018-08-09T03:45:35.809Z,39.26
2018-08-09T03:46:45.006Z,39.16
2018-08-09T03:47:54.160Z,39.06
2018-08-09T03:49:03.307Z,39.36
2018-08-09T03:50:12.740Z,39.16
2018-08-09T03:51:21.880Z,39.06
2018-08-09T03:52:31.281Z,39.16
2018-08-09T03:53:40.939Z,39.55
2018-08-09T03:54:50.091Z,39.55
2018-08-09T03:55:58.979Z,39.65
2018-08-09T03:57:08.391Z,39.75
2018-08-09T03:58:17.649Z,39.65
2018-08-09T03:59:27.208Z,39.26
2018-08-09T04:00:36.926Z,39.45
2018-08-09T04:01:46.337Z,39.36
2018-08-09T04:02:55.741Z,39.36
2018-08-09T04:04:05.411Z,39.36
2018-08-09T04:05:14.560Z,39.26
2018-08-09T04:06:23.450Z,39.26
2018-08-09T04:07:32.090Z,39.26
2018-08-09T04:08:41.304Z,39.26
2018-08-09T04:09:51.211Z,39.16
2018-08-09T04:11:00.611Z,39.26
2018-08-09T04:12:10.690Z,39.16
2018-08-09T04:13:20.161Z,39.26
2018-08-09T04:14:29.054Z,39.16
2018-08-09T04:15:38.198Z,39.43
2018-08-09T04:16:47.624Z,39.24
2018-08-09T04:17:56.618Z,39.26
2018-08-09T04:19:06.018Z,39.14
2018-08-09T04:20:14.901Z,39.26
2018-08-09T04:21:24.356Z,39.36
2018-08-09T04:22:33.515Z,39.26
2018-08-09T04:23:42.658Z,39.36
2018-08-09T04:24:52.318Z,39.24
2018-08-09T04:26:01.724Z,39.24
2018-08-09T04:27:11.125Z,39.53
2018-08-09T04:28:20.270Z,39.55
2018-08-09T04:29:29.692Z,39.34
2018-08-09T04:30:38.850Z,39.24
2018-08-09T04:31:48.563Z,39.24
2018-08-09T04:32:58.239Z,39.14
2018-08-09T04:34:07.460Z,39.14
2018-08-09T04:35:16.872Z,39.24
2018-08-09T04:36:26.293Z,39.26
2018-08-09T04:37:35.181Z,39.34
2018-08-09T04:38:44.327Z,39.16
2018-08-09T04:39:54.287Z,39.14
2018-08-09T04:41:03.425Z,39.14
2018-08-09T04:42:12.570Z,39.24
2018-08-09T04:43:21.713Z,39.24
2018-08-09T04:44:30.858Z,39.36
2018-08-09T04:45:39.740Z,39.26
2018-08-09T04:46:48.656Z,39.24
2018-08-09T04:47:58.061Z,39.43
2018-08-09T04:49:06.961Z,39.34
2018-08-09T04:50:16.464Z,39.62
2018-08-09T04:51:26.400Z,39.65
2018-08-09T04:52:36.062Z,39.62
2018-08-09T04:53:45.987Z,39.45
2018-08-09T04:54:55.144Z,39.16
2018-08-09T04:56:05.052Z,38.96
2018-08-09T04:57:14.216Z,38.87
2018-08-09T04:58:23.183Z,38.96
2018-08-09T04:59:33.252Z,38.96
2018-08-09T05:00:42.647Z,38.96
2018-08-09T05:01:52.070Z,38.87
2018-08-09T05:03:01.479Z,38.77
2018-08-09T05:04:11.418Z,38.77
2018-08-09T05:05:20.828Z,38.87
2018-08-09T05:06:29.461Z,38.87
2018-08-09T05:07:38.606Z,38.57
2018-08-09T05:08:48.024Z,38.87
2018-08-09T05:09:57.172Z,38.57
2018-08-09T05:11:06.064Z,38.67
2018-08-09T05:12:15.220Z,38.67
2018-08-09T05:13:24.375Z,38.48
2018-08-09T05:14:33.782Z,38.5
2018-08-09T05:15:42.946Z,38.7
2018-08-09T05:16:52.418Z,38.7
2018-08-09T05:18:01.584Z,38.5
2018-08-09T05:19:10.807Z,38.5
2018-08-09T05:20:19.433Z,38.7
2018-08-09T05:21:28.600Z,38.6
2018-08-09T05:22:37.786Z,38.7
2018-08-09T05:23:47.220Z,38.6
2018-08-09T05:24:56.639Z,38.5
2018-08-09T05:26:06.061Z,38.5
2018-08-09T05:27:14.697Z,38.6
2018-08-09T05:28:23.588Z,38.79
2018-08-09T05:29:32.991Z,38.6
2018-08-09T05:30:42.664Z,38.7
2018-08-09T05:31:51.820Z,38.5
2018-08-09T05:33:01.278Z,38.7
2018-08-09T05:34:10.820Z,38.7
2018-08-09T05:35:20.598Z,38.79
2018-08-09T05:36:30.020Z,38.6
2018-08-09T05:37:39.434Z,38.6
2018-08-09T05:38:48.593Z,38.7
2018-08-09T05:39:58.002Z,38.98
2018-08-09T05:41:07.444Z,38.89
2018-08-09T05:42:16.877Z,38.5
2018-08-09T05:43:26.305Z,38.89
2018-08-09T05:44:35.483Z,38.91
2018-08-09T05:45:45.159Z,38.79
2018-08-09T05:46:54.862Z,38.79
2018-08-09T05:48:04.045Z,38.7
2018-08-09T05:49:13.472Z,38.79
2018-08-09T05:50:22.978Z,38.7
2018-08-09T05:51:31.884Z,38.7
2018-08-09T05:52:41.748Z,38.7
2018-08-09T05:53:51.903Z,38.81
2018-08-09T05:55:01.068Z,38.7
2018-08-09T05:56:10.745Z,38.7
2018-08-09T05:57:20.165Z,38.7
2018-08-09T05:58:29.138Z,38.91
2018-08-09T05:59:38.725Z,38.79
2018-08-09T06:00:48.403Z,38.81
2018-08-09T06:01:57.380Z,38.71
2018-08-09T06:03:06.811Z,38.7
2018-08-09T06:04:16.023Z,38.7
2018-08-09T06:05:25.699Z,38.71
2018-08-09T06:06:35.169Z,38.81
2018-08-09T06:07:44.324Z,38.71
2018-08-09T06:08:53.741Z,38.62
2018-08-09T06:10:03.163Z,38.81
2018-08-09T06:11:12.582Z,38.81
2018-08-09T06:12:22.007Z,38.91
2018-08-09T06:13:31.814Z,38.71
2018-08-09T06:14:41.135Z,38.71
2018-08-09T06:15:50.814Z,38.52
2018-08-09T06:16:59.724Z,38.81
2018-08-09T06:18:09.400Z,38.62
2018-08-09T06:19:19.132Z,38.71
2018-08-09T06:20:28.548Z,38.71
2018-08-09T06:21:37.707Z,38.81
2018-08-09T06:22:47.144Z,38.81
2018-08-09T06:23:56.563Z,38.71
2018-08-09T06:25:05.472Z,38.62
2018-08-09T06:26:14.690Z,38.62
2018-08-09T06:27:24.534Z,38.71
2018-08-09T06:28:34.027Z,38.52
2018-08-09T06:29:43.910Z,38.62
2018-08-09T06:30:53.081Z,38.52
2018-08-09T06:32:02.246Z,38.62
2018-08-09T06:33:11.677Z,38.71
2018-08-09T06:34:21.353Z,38.62
2018-08-09T06:35:31.012Z,38.81
2018-08-09T06:36:40.196Z,38.52
2018-08-09T06:37:49.604Z,38.62
2018-08-09T06:38:58.500Z,38.52
2018-08-09T06:40:07.667Z,38.52
2018-08-09T06:41:17.354Z,38.52
2018-08-09T06:42:26.770Z,38.62
2018-08-09T06:43:35.937Z,38.62
2018-08-09T06:44:45.606Z,38.62
2018-08-09T06:45:55.285Z,38.62
2018-08-09T06:47:04.447Z,38.62
2018-08-09T06:48:13.606Z,38.62
2018-08-09T06:49:22.751Z,38.62
2018-08-09T06:50:31.922Z,38.62
2018-08-09T06:51:41.139Z,38.42
2018-08-09T06:52:50.562Z,38.62
2018-08-09T06:54:00.239Z,38.62
2018-08-09T06:55:09.646Z,38.71
2018-08-09T06:56:19.454Z,38.52
2018-08-09T06:57:29.671Z,38.52
2018-08-09T06:58:39.100Z,38.52
2018-08-09T06:59:49.066Z,38.52
2018-08-09T07:00:58.210Z,38.52
2018-08-09T07:02:07.643Z,38.62
2018-08-09T07:03:16.808Z,38.52
2018-08-09T07:04:25.962Z,38.62
2018-08-09T07:05:35.650Z,38.62
2018-08-09T07:06:44.558Z,38.62
2018-08-09T07:07:53.474Z,38.62
2018-08-09T07:09:03.455Z,38.32
2018-08-09T07:10:13.128Z,38.42
2018-08-09T07:11:22.032Z,38.42
2018-08-09T07:12:31.193Z,38.71
2018-08-09T07:13:40.641Z,38.71
2018-08-09T07:14:49.803Z,38.71
2018-08-09T07:15:58.963Z,38.71
2018-08-09T07:17:08.378Z,38.71
2018-08-09T07:18:17.552Z,38.52
2018-08-09T07:19:26.705Z,38.81
2018-08-09T07:20:35.882Z,38.42
2018-08-09T07:21:45.061Z,38.42
2018-08-09T07:22:54.479Z,38.71
2018-08-09T07:24:04.064Z,38.42
2018-08-09T07:25:12.978Z,38.42
2018-08-09T07:26:22.813Z,38.42
2018-08-09T07:27:32.735Z,38.42
2018-08-09T07:28:42.169Z,38.81
2018-08-09T07:29:51.591Z,38.91
2018-08-09T07:31:01.013Z,38.91
2018-08-09T07:32:10.190Z,38.81
2018-08-09T07:33:19.364Z,38.42
2018-08-09T07:34:28.271Z,38.81
2018-08-09T07:35:37.168Z,38.91
2018-08-09T07:36:46.612Z,38.62
2018-08-09T07:37:55.526Z,38.71
2018-08-09T07:39:04.975Z,38.62
2018-08-09T07:40:14.412Z,38.71
2018-08-09T07:41:24.349Z,38.71
2018-08-09T07:42:33.508Z,38.81
2018-08-09T07:43:42.935Z,38.81
2018-08-09T07:44:52.605Z,38.71
2018-08-09T07:46:02.018Z,38.81
2018-08-09T07:47:11.191Z,38.71
2018-08-09T07:48:20.636Z,38.91
2018-08-09T07:49:29.897Z,38.71
2018-08-09T07:50:39.342Z,39
2018-08-09T07:51:48.511Z,38.71
2018-08-09T07:52:58.435Z,39
2018-08-09T07:54:07.600Z,38.81
2018-08-09T07:55:17.107Z,38.81
2018-08-09T07:56:26.791Z,38.81
2018-08-09T07:57:35.948Z,38.81
2018-08-09T07:58:45.357Z,38.81
2018-08-09T07:59:54.764Z,38.71
2018-08-09T08:01:03.687Z,39
2018-08-09T08:02:12.900Z,39.2
2018-08-09T08:03:22.367Z,38.91
2018-08-09T08:04:31.792Z,39
2018-08-09T08:05:41.532Z,39
2018-08-09T08:06:51.462Z,39.2
2018-08-09T08:08:00.658Z,38.81
2018-08-09T08:09:10.598Z,38.81
2018-08-09T08:10:19.615Z,38.81
2018-08-09T08:11:29.069Z,38.91
2018-08-09T08:12:38.496Z,39
2018-08-09T08:13:47.664Z,39
2018-08-09T08:14:57.143Z,39
2018-08-09T08:16:06.907Z,39.03
2018-08-09T08:17:16.070Z,38.81
2018-08-09T08:18:25.238Z,39
2018-08-09T08:19:34.403Z,38.81
2018-08-09T08:20:44.389Z,38.93
2018-08-09T08:21:54.753Z,38.93
2018-08-09T08:23:04.447Z,38.93
2018-08-09T08:24:13.619Z,39.03
2018-08-09T08:25:22.775Z,38.91
2018-08-09T08:26:31.691Z,38.91
2018-08-09T08:27:41.232Z,39.1
2018-08-09T08:28:51.201Z,39.03
2018-08-09T08:29:59.860Z,39.1
2018-08-09T08:31:09.040Z,38.91
2018-08-09T08:32:18.226Z,39.03
2018-08-09T08:33:27.934Z,39
2018-08-09T08:34:37.180Z,38.93
2018-08-09T08:35:47.400Z,39
2018-08-09T08:36:56.613Z,38.93
2018-08-09T08:38:06.279Z,38.93
2018-08-09T08:39:15.445Z,38.91
2018-08-09T08:40:24.355Z,39.22
2018-08-09T08:41:34.238Z,38.81
2018-08-09T08:42:44.692Z,39
2018-08-09T08:43:53.630Z,38.81
2018-08-09T08:45:02.564Z,38.93
2018-08-09T08:46:11.977Z,38.81
2018-08-09T08:47:21.193Z,39
2018-08-09T08:48:30.778Z,38.81
2018-08-09T08:49:40.437Z,38.83
2018-08-09T08:50:49.862Z,39
2018-08-09T08:51:59.299Z,39.2
2018-08-09T08:53:08.756Z,39.03
2018-08-09T08:54:18.689Z,38.91
2018-08-09T08:55:27.870Z,39.12
2018-08-09T08:56:37.528Z,38.93
2018-08-09T08:57:46.432Z,39.03
2018-08-09T08:58:55.641Z,39.03
2018-08-09T09:00:04.567Z,39
2018-08-09T09:01:14.028Z,39.2
2018-08-09T09:02:23.463Z,38.91
2018-08-09T09:03:32.354Z,39.1
2018-08-09T09:04:41.788Z,39
2018-08-09T09:05:50.945Z,39.03
2018-08-09T09:06:59.894Z,38.91
2018-08-09T09:08:09.452Z,39.12
2018-08-09T09:09:18.864Z,39
2018-08-09T09:10:28.033Z,39.1
2018-08-09T09:11:37.493Z,38.93
2018-08-09T09:12:46.899Z,38.91
2018-08-09T09:13:55.816Z,38.83
2018-08-09T09:15:05.242Z,39.03
2018-08-09T09:16:14.674Z,39
2018-08-09T09:17:24.152Z,39
2018-08-09T09:18:33.568Z,38.93
2018-08-09T09:19:42.469Z,38.91
2018-08-09T09:20:52.158Z,39
2018-08-09T09:22:01.064Z,39.1
2018-08-09T09:23:10.504Z,39.12
2018-08-09T09:24:19.946Z,38.91
2018-08-09T09:25:29.362Z,39.03
2018-08-09T09:26:38.795Z,39.12
2018-08-09T09:27:48.715Z,39.12
2018-08-09T09:28:57.885Z,39
2018-08-09T09:30:07.059Z,39
2018-08-09T09:31:16.716Z,39.03
2018-08-09T09:32:26.405Z,39.41
2018-08-09T09:33:36.059Z,39.1
2018-08-09T09:34:45.217Z,39.12
2018-08-09T09:35:53.914Z,39.12
2018-08-09T09:37:03.327Z,39.12
2018-08-09T09:38:12.493Z,38.93
2018-08-09T09:39:21.156Z,39.12
2018-08-09T09:40:29.824Z,39
2018-08-09T09:41:39.000Z,38.93
2018-08-09T09:42:48.409Z,39.03
2018-08-09T09:43:57.838Z,38.93
2018-08-09T09:45:07.002Z,39
2018-08-09T09:46:16.207Z,39.41
2018-08-09T09:47:25.618Z,39.12
2018-08-09T09:48:35.052Z,39.03
2018-08-09T09:49:44.508Z,39.22
2018-08-09T09:50:54.697Z,39.03
2018-08-09T09:52:04.385Z,39.03
2018-08-09T09:53:13.019Z,39.12
2018-08-09T09:54:21.922Z,39.22
2018-08-09T09:55:31.089Z,39.12
2018-08-09T09:56:40.237Z,39.12
2018-08-09T09:57:49.911Z,39.31
2018-08-09T09:58:59.130Z,39.31
2018-08-09T10:00:08.307Z,39.31
2018-08-09T10:01:17.511Z,39.22
2018-08-09T10:02:26.914Z,39.31
2018-08-09T10:03:36.073Z,39.31
2018-08-09T10:04:44.724Z,39.31
2018-08-09T10:05:54.397Z,39.31
2018-08-09T10:07:04.174Z,39.03
2018-08-09T10:08:14.318Z,39.03
2018-08-09T10:09:23.503Z,39.22
2018-08-09T10:10:33.137Z,39.31
2018-08-09T10:11:42.610Z,39.22
2018-08-09T10:12:52.650Z,39.22
2018-08-09T10:14:02.078Z,39.12
2018-08-09T10:15:11.535Z,39.22
2018-08-09T10:16:20.471Z,39.41
2018-08-09T10:17:29.903Z,39.22
2018-08-09T10:18:39.581Z,39.22
2018-08-09T10:19:49.126Z,39.22
2018-08-09T10:20:58.754Z,39.22
2018-08-09T10:22:08.448Z,39.41
2018-08-09T10:23:17.509Z,39.51
2018-08-09T10:24:26.923Z,39.51
2018-08-09T10:25:36.090Z,39.51
2018-08-09T10:26:45.260Z,39.7
2018-08-09T10:27:54.154Z,39.51
2018-08-09T10:29:03.313Z,39.7
2018-08-09T10:30:13.025Z,39.61
2018-08-09T10:31:21.967Z,39.61
2018-08-09T10:32:31.395Z,39.7
2018-08-09T10:33:40.828Z,39.61
2018-08-09T10:34:50.803Z,39.61
2018-08-09T10:36:00.208Z,39.8
2018-08-09T10:37:09.978Z,39.8
2018-08-09T10:38:19.388Z,39.61
2018-08-09T10:39:28.554Z,39.8
2018-08-09T10:40:37.732Z,39.7
2018-08-09T10:41:46.897Z,39.7
2018-08-09T10:42:56.593Z,39.7
2018-08-09T10:44:05.768Z,39.7
2018-08-09T10:45:15.182Z,39.8
2018-08-09T10:46:25.119Z,39.8
2018-08-09T10:47:34.549Z,39.8
2018-08-09T10:48:43.442Z,39.8
2018-08-09T10:49:53.119Z,39.7
2018-08-09T10:51:02.276Z,39.7
2018-08-09T10:52:11.442Z,39.7
2018-08-09T10:53:20.353Z,39.7
2018-08-09T10:54:29.513Z,39.8
2018-08-09T10:55:39.296Z,39.8
2018-08-09T10:56:49.430Z,39.7
2018-08-09T10:57:58.602Z,39.7
2018-08-09T10:59:08.049Z,39.7
2018-08-09T11:00:17.484Z,39.7
2018-08-09T11:01:26.948Z,39.61
2018-08-09T11:02:35.859Z,39.61
2018-08-09T11:03:44.796Z,39.7
2018-08-09T11:04:53.438Z,39.7
2018-08-09T11:06:03.155Z,39.7
2018-08-09T11:07:12.313Z,39.51
2018-08-09T11:08:21.718Z,39.61
2018-08-09T11:09:30.620Z,39.51
2018-08-09T11:10:39.796Z,39.7
2018-08-09T11:11:49.232Z,39.51
2018-08-09T11:12:58.395Z,39.51
2018-08-09T11:14:08.073Z,39.51
2018-08-09T11:15:17.251Z,39.41
2018-08-09T11:16:26.178Z,39.51
2018-08-09T11:17:35.367Z,39.51
2018-08-09T11:18:44.793Z,39.61
2018-08-09T11:19:53.945Z,39.22
2018-08-09T11:21:02.845Z,39.31
2018-08-09T11:22:12.028Z,39.22
2018-08-09T11:23:21.189Z,39.51
2018-08-09T11:24:30.342Z,39.41
2018-08-09T11:25:39.760Z,39.41
2018-08-09T11:26:48.922Z,39.41
2018-08-09T11:27:58.402Z,39.61
2018-08-09T11:29:07.044Z,39.31
2018-08-09T11:30:15.954Z,39.31
2018-08-09T11:31:25.401Z,39.31
2018-08-09T11:32:34.313Z,39.31
2018-08-09T11:33:43.756Z,39.7
2018-08-09T11:34:52.922Z,39.22
2018-08-09T11:36:02.090Z,39.22
2018-08-09T11:37:11.545Z,39.22
2018-08-09T11:38:20.983Z,39.22
2018-08-09T11:39:30.399Z,39.31
2018-08-09T11:40:40.101Z,39.31
2018-08-09T11:41:49.268Z,39.31
2018-08-09T11:42:58.554Z,39.31
2018-08-09T11:44:08.448Z,39.31
2018-08-09T11:45:17.874Z,39.22
2018-08-09T11:46:27.301Z,39.41
2018-08-09T11:47:36.468Z,39.41
2018-08-09T11:48:46.386Z,39.31
2018-08-09T11:49:55.295Z,39.41
2018-08-09T11:51:04.214Z,39.41
2018-08-09T11:52:13.490Z,39.41
2018-08-09T11:53:22.399Z,39.22
2018-08-09T11:54:31.554Z,39.22
2018-08-09T11:55:41.241Z,39.41
2018-08-09T11:56:50.753Z,39.31
2018-08-09T11:58:00.238Z,39.22
2018-08-09T11:59:08.934Z,39.31
2018-08-09T12:00:18.365Z,39.31
2018-08-09T12:01:27.887Z,39.22
2018-08-09T12:02:37.941Z,39.31
2018-08-09T12:03:47.109Z,39.31
2018-08-09T12:04:56.564Z,39.41
2018-08-09T12:06:06.242Z,39.22
2018-08-09T12:07:15.396Z,39.41
2018-08-09T12:08:25.068Z,39.41
2018-08-09T12:09:34.110Z,39.51
2018-08-09T12:10:43.888Z,39.31
2018-08-09T12:11:52.885Z,39.9
2018-08-09T12:13:02.576Z,39.51
2018-08-09T12:14:11.742Z,39.31
2018-08-09T12:15:21.032Z,39.31
2018-08-09T12:16:30.473Z,40
2018-08-09T12:17:39.685Z,40
2018-08-09T12:18:49.102Z,39.7
2018-08-09T12:19:58.804Z,40
2018-08-09T12:21:08.876Z,39.8
2018-08-09T12:22:18.817Z,39.9
2018-08-09T12:23:28.239Z,39.9
2018-08-09T12:24:37.425Z,39.9
2018-08-09T12:25:46.350Z,39.9
2018-08-09T12:26:55.804Z,39.9
2018-08-09T12:28:05.363Z,39.9
2018-08-09T12:29:14.540Z,39.8
2018-08-09T12:30:23.803Z,39.9
2018-08-09T12:31:33.286Z,39.9
2018-08-09T12:32:42.441Z,39.8
2018-08-09T12:33:52.126Z,39.7
2018-08-09T12:35:01.280Z,39.8
2018-08-09T12:36:10.436Z,39.8
2018-08-09T12:37:19.346Z,39.9
2018-08-09T12:38:29.022Z,39.7
2018-08-09T12:39:38.718Z,39.8
2018-08-09T12:40:48.118Z,39.9
2018-08-09T12:41:57.545Z,39.7
2018-08-09T12:43:06.437Z,39.9
2018-08-09T12:44:15.073Z,40
2018-08-09T12:45:23.751Z,39.9
2018-08-09T12:46:33.401Z,39.8
2018-08-09T12:47:42.823Z,39.9
2018-08-09T12:48:51.977Z,39.8
2018-08-09T12:50:01.137Z,39.8
2018-08-09T12:51:10.561Z,39.7
2018-08-09T12:52:20.239Z,39.8
2018-08-09T12:53:29.651Z,39.8
2018-08-09T12:54:39.069Z,39.8
2018-08-09T12:55:48.226Z,39.8
2018-08-09T12:56:57.123Z,39.8
2018-08-09T12:58:05.794Z,39.61
2018-08-09T12:59:15.221Z,39.8
2018-08-09T13:00:24.698Z,39.8
2018-08-09T13:01:34.144Z,39.7
2018-08-09T13:02:43.822Z,39.7
2018-08-09T13:03:52.722Z,39.7
2018-08-09T13:05:02.152Z,40
2018-08-09T13:06:11.582Z,39.9
2018-08-09T13:07:21.009Z,39.7
2018-08-09T13:08:30.535Z,39.9
2018-08-09T13:09:39.688Z,39.7
2018-08-09T13:10:48.862Z,39.8
2018-08-09T13:11:58.556Z,39.8
2018-08-09T13:13:07.972Z,39.9
2018-08-09T13:14:17.148Z,39.61
2018-08-09T13:15:26.314Z,39.8
2018-08-09T13:16:35.495Z,39.61
2018-08-09T13:17:44.661Z,39.9
2018-08-09T13:18:54.070Z,39.61
2018-08-09T13:20:03.489Z,39.61
2018-08-09T13:21:12.637Z,39.51
2018-08-09T13:22:22.054Z,39.9
2018-08-09T13:23:31.847Z,39.7
2018-08-09T13:24:41.005Z,39.7
2018-08-09T13:25:50.421Z,39.9
2018-08-09T13:26:59.835Z,39.7
2018-08-09T13:28:09.511Z,40.09
2018-08-09T13:29:18.682Z,39.61
2018-08-09T13:30:27.601Z,39.51
2018-08-09T13:31:37.278Z,39.8
2018-08-09T13:32:46.947Z,39.9
2018-08-09T13:33:56.105Z,39.61
2018-08-09T13:35:04.999Z,39.9
2018-08-09T13:36:14.928Z,40
2018-08-09T13:37:24.084Z,40
2018-08-09T13:38:33.233Z,40
2018-08-09T13:39:42.392Z,39.8
2018-08-09T13:40:52.059Z,40
2018-08-09T13:42:01.466Z,40
2018-08-09T13:43:10.928Z,39.8
2018-08-09T13:44:20.675Z,40
2018-08-09T13:45:29.831Z,40
2018-08-09T13:46:39.406Z,39.9
2018-08-09T13:47:49.577Z,39.8
2018-08-09T13:48:58.747Z,39.8
2018-08-09T13:50:07.743Z,40
2018-08-09T13:51:17.175Z,40.09
2018-08-09T13:52:26.875Z,40
2018-08-09T13:53:36.553Z,39.9
2018-08-09T13:54:45.721Z,39.9
2018-08-09T13:55:55.404Z,40.19
2018-08-09T13:57:04.589Z,40.09
2018-08-09T13:58:13.508Z,39.9
2018-08-09T13:59:22.450Z,39.9
2018-08-09T14:00:32.161Z,39.9
2018-08-09T14:01:41.638Z,39.9
2018-08-09T14:02:50.806Z,40.29
2018-08-09T14:04:00.273Z,40.19
2018-08-09T14:05:09.906Z,40.09
2018-08-09T14:06:19.585Z,40.19
2018-08-09T14:07:29.004Z,40.19
2018-08-09T14:08:38.416Z,40.19
2018-08-09T14:09:48.086Z,40
2018-08-09T14:10:57.776Z,40.09
2018-08-09T14:12:07.472Z,40
2018-08-09T14:13:16.627Z,40.19
2018-08-09T14:14:25.274Z,40.19
2018-08-09T14:15:34.693Z,40.09
2018-08-09T14:16:44.376Z,40.09
2018-08-09T14:17:53.599Z,40
2018-08-09T14:19:03.358Z,40.09
2018-08-09T14:20:12.766Z,40.09
2018-08-09T14:21:21.929Z,40.09
2018-08-09T14:22:31.594Z,40.09
2018-08-09T14:23:40.490Z,40.09
2018-08-09T14:24:49.613Z,40.09
2018-08-09T14:25:59.705Z,40.09
2018-08-09T14:27:08.857Z,40.09
2018-08-09T14:28:18.271Z,40.09
2018-08-09T14:29:27.182Z,40.19
2018-08-09T14:30:36.078Z,40.09
2018-08-09T14:31:45.245Z,40.19
2018-08-09T14:32:55.184Z,40.09
2018-08-09T14:34:04.678Z,40.09
2018-08-09T14:35:13.854Z,40.19
2018-08-09T14:36:23.535Z,40.19
2018-08-09T14:37:32.968Z,40.19
2018-08-09T14:38:42.452Z,40.29
2018-08-09T14:39:52.266Z,40.09
2018-08-09T14:41:02.213Z,40.19
2018-08-09T14:42:11.439Z,40.29
2018-08-09T14:43:20.855Z,40.09
2018-08-09T14:44:30.283Z,40.29
2018-08-09T14:45:39.962Z,40.48
2018-08-09T14:46:49.663Z,40.39
2018-08-09T14:47:59.085Z,40.39
2018-08-09T14:49:08.505Z,40.19
2018-08-09T14:50:17.952Z,40.39
2018-08-09T14:51:27.128Z,40.29
2018-08-09T14:52:36.283Z,40.19
2018-08-09T14:53:45.854Z,40.29
2018-08-09T14:54:54.421Z,40.29
2018-08-09T14:56:03.608Z,40.39
2018-08-09T14:57:13.027Z,40
2018-08-09T14:58:22.694Z,40.29
2018-08-09T14:59:32.375Z,40.29
2018-08-09T15:00:41.530Z,40.19
2018-08-09T15:01:50.956Z,40.39
2018-08-09T15:03:00.132Z,40